Toolesboro, Iowa
Current Conditions -  °F | °C
As of 6:55 PM on Saturday 22 Nov 2014 (Local Time) from KMUT Reporting Station
Overcast Overcast  
Wind Chill: 54°   Ceiling: 2400
Heat Index: 54°   Visibility: 10mi
Dew Point: 50°   Wind: 10mph
Humidity: 88%   Direction: 170°S
Pressure: 29.79"   Gusts: NA
Location:  41.1602°N, 91.246°W
Report Text: KMUT 230055Z AUTO 17009KT 10SM OVC024 12/10 A2979 RMK AO2
Loading
Personal Weather Stations






























Interactive Weather Map New forecast layout! Learn more

10-Day Weather Forecast

Advertisements
Track Severe Weather on mobile